Time;durP1;ratioP1;P1;durP2;ratioP2;P2;SDS_P1;SDS_P2;PMS_P1;PMS_P2;Temp;Humidity;BMP_temperature;BMP_pressure;BME280_temperature;BME280_humidity;BME280_pressure;Samples;Min_cycle;Max_cycle;Signal;HPM_P1;HPM_P2
2021/01/01 00:01:34;;;;;;;102.20;62.72;;;6.30;90.10;;;;;;5075316;28;20025;-67
2021/01/01 00:04:00;;;;;;;104.75;64.88;;;6.30;90.10;;;;;;5071864;28;20037;-67
2021/01/01 00:06:25;;;;;;;112.53;68.32;;;6.30;90.00;;;;;;5070896;28;20024;-67
2021/01/01 00:08:51;;;;;;;128.68;82.93;;;6.30;90.00;;;;;;5073788;28;20047;-67
2021/01/01 00:11:17;;;;;;;133.00;78.40;;;6.30;90.00;;;;;;5075067;28;20027;-67
2021/01/01 00:13:43;;;;;;;125.00;76.20;;;6.20;89.80;;;;;;5072049;28;20033;-67
2021/01/01 00:16:12;;;;;;;113.13;65.78;;;6.20;89.60;;;;;;5072883;28;20027;-67
2021/01/01 00:18:38;;;;;;;100.50;63.00;;;6.20;89.50;;;;;;5072335;28;20048;-67
2021/01/01 00:21:04;;;;;;;95.95;58.92;;;6.20;89.30;;;;;;5072092;28;20127;-67
2021/01/01 00:23:30;;;;;;;98.57;61.05;;;6.20;89.10;;;;;;5076020;28;20434;-67
2021/01/01 00:25:56;;;;;;;99.07;59.25;;;6.20;88.70;;;;;;5072142;28;20104;-67
2021/01/01 00:28:21;;;;;;;100.63;59.03;;;6.20;88.60;;;;;;5075393;28;20499;-68
2021/01/01 00:30:46;;;;;;;108.03;64.72;;;6.20;88.50;;;;;;5073699;28;20032;-67
2021/01/01 00:33:12;;;;;;;104.28;61.10;;;6.10;88.50;;;;;;5072728;28;20025;-67
2021/01/01 00:35:37;;;;;;;105.07;63.25;;;6.20;88.60;;;;;;5074588;28;20085;-67
2021/01/01 00:38:03;;;;;;;102.85;63.22;;;6.20;88.50;;;;;;5071128;28;20036;-67
2021/01/01 00:40:28;;;;;;;99.07;60.20;;;6.20;88.50;;;;;;5070799;28;20480;-67
2021/01/01 00:42:54;;;;;;;102.07;62.25;;;6.20;88.60;;;;;;5070104;28;20033;-67
2021/01/01 00:45:19;;;;;;;107.55;62.38;;;6.20;88.50;;;;;;5070338;28;20479;-67
2021/01/01 00:47:49;;;;;;;105.57;63.38;;;6.20;88.30;;;;;;5071013;28;20515;-67
2021/01/01 00:50:15;;;;;;;105.22;60.28;;;6.20;88.20;;;;;;5071055;28;20033;-67
2021/01/01 00:52:41;;;;;;;104.60;62.13;;;6.20;88.20;;;;;;5071777;28;20043;-67
2021/01/01 00:55:07;;;;;;;96.50;58.70;;;6.10;88.20;;;;;;5070823;28;20515;-67
2021/01/01 00:57:33;;;;;;;91.70;56.53;;;6.10;88.20;;;;;;5069893;28;20033;-67
2021/01/01 00:59:59;;;;;;;94.57;55.05;;;6.10;88.20;;;;;;5075283;28;20024;-67
2021/01/01 01:02:25;;;;;;;88.35;52.60;;;6.10;88.10;;;;;;5074398;28;20050;-67
2021/01/01 01:04:50;;;;;;;90.47;55.08;;;6.10;88.10;;;;;;5075099;28;20508;-68
2021/01/01 01:07:16;;;;;;;89.28;53.58;;;6.10;88.10;;;;;;5072482;28;20039;-68
2021/01/01 01:09:42;;;;;;;91.68;52.95;;;6.10;88.00;;;;;;5072032;28;20032;-68
2021/01/01 01:12:08;;;;;;;86.57;52.95;;;6.10;88.10;;;;;;5072482;28;20040;-68
2021/01/01 01:14:34;;;;;;;90.68;53.05;;;6.10;88.20;;;;;;5072811;28;20028;-67
2021/01/01 01:16:59;;;;;;;82.47;51.33;;;6.10;88.00;;;;;;5072175;28;20052;-68
2021/01/01 01:19:25;;;;;;;89.93;51.13;;;6.10;88.10;;;;;;5072161;28;20036;-68
2021/01/01 01:21:50;;;;;;;83.40;49.38;;;6.10;88.10;;;;;;5071804;28;20697;-67
2021/01/01 01:24:16;;;;;;;81.07;48.15;;;6.10;88.20;;;;;;5072389;28;20028;-68
2021/01/01 01:26:41;;;;;;;79.55;47.22;;;6.10;88.10;;;;;;5074689;28;20584;-68
2021/01/01 01:29:06;;;;;;;78.57;46.63;;;6.10;88.10;;;;;;5079835;28;20024;-68
2021/01/01 01:31:32;;;;;;;77.22;45.58;;;6.10;88.10;;;;;;5072176;28;20025;-67
2021/01/01 01:33:57;;;;;;;81.35;47.58;;;6.00;88.00;;;;;;5072200;28;20021;-67
2021/01/01 01:36:23;;;;;;;77.63;45.05;;;6.00;88.00;;;;;;5087157;28;20036;-67
2021/01/01 01:38:48;;;;;;;72.43;43.85;;;6.00;88.00;;;;;;5096930;28;20063;-67
2021/01/01 01:41:14;;;;;;;69.78;41.85;;;6.00;88.10;;;;;;5092141;28;20072;-67
2021/01/01 01:43:39;;;;;;;71.82;43.67;;;6.00;88.10;;;;;;5078162;28;20024;-67
2021/01/01 01:46:05;;;;;;;64.82;39.47;;;6.00;88.10;;;;;;5082221;28;20024;-67
2021/01/01 01:48:36;;;;;;;65.18;39.75;;;6.00;88.30;;;;;;5073321;28;20036;-67
2021/01/01 01:51:02;;;;;;;64.50;39.05;;;6.00;88.40;;;;;;5071719;28;20037;-67
2021/01/01 01:53:32;;;;;;;61.70;38.35;;;6.00;88.20;;;;;;5071364;28;20045;-67
2021/01/01 01:55:58;;;;;;;72.75;41.70;;;6.00;88.30;;;;;;5073685;28;20031;-67
2021/01/01 01:58:24;;;;;;;63.58;38.13;;;6.00;88.30;;;;;;5071761;28;20056;-68
2021/01/01 02:00:59;;;;;;;61.13;36.47;;;5.90;88.30;;;;;;5089239;28;20027;-67
2021/01/01 02:03:25;;;;;;;;;;;5.90;88.40;;;;;;5077856;28;20028;-67
2021/01/01 02:05:51;;;;;;;59.33;34.95;;;5.90;88.40;;;;;;5078104;28;20509;-67
2021/01/01 02:08:16;;;;;;;57.70;34.15;;;5.90;88.40;;;;;;5070976;28;20089;-68
2021/01/01 02:10:42;;;;;;;55.42;32.78;;;5.90;88.60;;;;;;5077598;28;20085;-68
2021/01/01 02:13:10;;;;;;;56.35;32.55;;;5.90;88.60;;;;;;5102895;28;20035;-68
2021/01/01 02:15:35;;;;;;;53.72;31.60;;;5.90;88.70;;;;;;5089481;28;20038;-68
2021/01/01 02:18:01;;;;;;;53.08;31.40;;;5.90;88.70;;;;;;5081259;28;20044;-68
2021/01/01 02:20:26;;;;;;;54.33;32.05;;;5.90;88.70;;;;;;5091834;28;20479;-68
2021/01/01 02:22:52;;;;;;;53.72;32.05;;;5.90;88.80;;;;;;5089305;28;20028;-68
2021/01/01 02:25:18;;;;;;;51.85;32.30;;;5.90;88.80;;;;;;5071394;28;20025;-68
2021/01/01 02:27:43;;;;;;;45.20;29.25;;;5.90;88.90;;;;;;5084731;28;20028;-68
2021/01/01 02:30:09;;;;;;;44.40;28.95;;;5.90;88.80;;;;;;5078936;28;20135;-68
2021/01/01 02:32:35;;;;;;;49.50;28.15;;;5.90;88.80;;;;;;5070564;28;20039;-68
2021/01/01 02:35:01;;;;;;;45.85;27.38;;;5.90;88.90;;;;;;5070804;28;20054;-68
2021/01/01 02:37:27;;;;;;;45.63;27.55;;;5.90;88.90;;;;;;5070088;28;20068;-68
2021/01/01 02:39:52;;;;;;;45.88;28.00;;;5.90;89.00;;;;;;5070478;28;20020;-68
2021/01/01 02:42:18;;;;;;;44.97;27.38;;;5.90;89.00;;;;;;5085468;28;20070;-68
2021/01/01 02:44:45;;;;;;;41.78;26.73;;;5.90;89.10;;;;;;5087283;28;20024;-68
2021/01/01 02:47:11;;;;;;;39.25;24.63;;;5.90;89.10;;;;;;5090009;28;20032;-68
2021/01/01 02:49:36;;;;;;;38.40;22.88;;;5.90;89.10;;;;;;5075833;28;20029;-68
2021/01/01 02:52:02;;;;;;;43.45;25.70;;;5.90;89.00;;;;;;5105281;28;20376;-68
2021/01/01 02:54:28;;;;;;;38.80;23.85;;;5.80;89.00;;;;;;5087865;28;20056;-68
2021/01/01 02:56:54;;;;;;;38.30;23.70;;;5.80;88.90;;;;;;5074923;28;20016;-68
2021/01/01 02:59:19;;;;;;;38.65;24.15;;;5.90;89.00;;;;;;5073143;28;20090;-68
2021/01/01 03:01:45;;;;;;;38.88;23.00;;;5.90;89.10;;;;;;5073014;28;20082;-68
2021/01/01 03:04:11;;;;;;;34.83;22.33;;;5.90;89.10;;;;;;5073777;28;20047;-68
2021/01/01 03:06:36;;;;;;;36.67;22.58;;;5.80;89.20;;;;;;5078100;28;20020;-68
2021/01/01 03:09:03;;;;;;;35.53;22.38;;;5.90;89.20;;;;;;5074084;28;20035;-68
2021/01/01 03:11:29;;;;;;;39.65;23.10;;;5.90;89.20;;;;;;5089163;28;20084;-68
2021/01/01 03:13:54;;;;;;;35.60;21.80;;;5.90;89.10;;;;;;5087651;28;20025;-68
2021/01/01 03:16:20;;;;;;;34.35;20.85;;;5.90;89.20;;;;;;5072480;28;20029;-68
2021/01/01 03:18:45;;;;;;;36.38;22.25;;;5.90;89.10;;;;;;5072107;28;20040;-68
2021/01/01 03:21:11;;;;;;;38.55;22.02;;;5.90;89.10;;;;;;5070803;28;20025;-68
2021/01/01 03:23:36;;;;;;;37.20;22.23;;;5.90;89.10;;;;;;5070577;28;20059;-68
2021/01/01 03:26:02;;;;;;;32.65;20.73;;;5.90;89.20;;;;;;5082386;28;20032;-68
2021/01/01 03:28:27;;;;;;;36.42;21.65;;;5.90;89.30;;;;;;5073106;28;20028;-68
2021/01/01 03:30:53;;;;;;;32.13;20.70;;;5.90;89.40;;;;;;5073151;28;20048;-68
2021/01/01 03:33:19;;;;;;;32.90;20.98;;;5.90;89.40;;;;;;5070870;28;20021;-68
2021/01/01 03:35:44;;;;;;;30.52;20.08;;;5.90;89.40;;;;;;5078889;28;20027;-68
2021/01/01 03:38:09;;;;;;;34.38;20.13;;;5.90;89.50;;;;;;5090903;28;20032;-68
2021/01/01 03:40:35;;;;;;;34.92;20.33;;;5.90;89.40;;;;;;5092216;28;20483;-68
2021/01/01 03:43:01;;;;;;;32.58;20.90;;;5.90;89.50;;;;;;5111822;28;20115;-68
2021/01/01 03:45:28;;;;;;;32.25;20.50;;;5.90;89.40;;;;;;5091405;28;20436;-68
2021/01/01 03:47:54;;;;;;;37.60;21.50;;;5.90;89.40;;;;;;5094883;28;20028;-68
2021/01/01 03:50:19;;;;;;;34.60;20.38;;;5.90;89.30;;;;;;5079298;28;20496;-68
2021/01/01 03:52:45;;;;;;;33.17;20.67;;;5.90;89.30;;;;;;5073948;28;20522;-68
2021/01/01 03:55:10;;;;;;;32.00;20.05;;;5.90;89.30;;;;;;5084666;28;20615;-68
2021/01/01 03:57:36;;;;;;;34.70;20.75;;;6.00;89.40;;;;;;5093224;28;20040;-67
2021/01/01 04:00:05;;;;;;;31.55;20.25;;;6.00;89.40;;;;;;5080439;28;20514;-68
2021/01/01 04:02:31;;;;;;;32.95;20.88;;;6.00;89.40;;;;;;5073975;28;20082;-68
2021/01/01 04:04:56;;;;;;;38.33;23.67;;;6.00;89.40;;;;;;5090991;28;20028;-68
2021/01/01 04:07:22;;;;;;;36.75;22.20;;;5.90;89.40;;;;;;5076895;28;20090;-68
2021/01/01 04:09:47;;;;;;;41.97;25.00;;;5.90;89.50;;;;;;5080820;28;20032;-67
2021/01/01 04:12:13;;;;;;;41.13;24.45;;;5.90;89.40;;;;;;5094020;28;20016;-68
2021/01/01 04:14:38;;;;;;;39.55;23.33;;;6.00;89.50;;;;;;5083724;28;20024;-67
2021/01/01 04:17:04;;;;;;;37.40;23.17;;;5.90;89.50;;;;;;5087363;28;20135;-68
2021/01/01 04:19:29;;;;;;;41.28;24.65;;;5.90;89.60;;;;;;5077467;28;20472;-67
2021/01/01 04:21:55;;;;;;;40.25;23.25;;;5.90;89.60;;;;;;5080427;28;20030;-68
2021/01/01 04:24:20;;;;;;;36.00;22.58;;;5.90;89.60;;;;;;5091301;28;20032;-68
2021/01/01 04:26:46;;;;;;;36.40;22.00;;;5.90;89.60;;;;;;5094010;28;20107;-67
2021/01/01 04:29:11;;;;;;;36.08;21.73;;;5.90;89.70;;;;;;5086983;28;20016;-68
2021/01/01 04:31:38;;;;;;;30.83;19.83;;;6.00;89.70;;;;;;5073403;28;20025;-67
2021/01/01 04:34:05;;;;;;;29.67;19.88;;;6.00;89.60;;;;;;5075481;28;20491;-68
2021/01/01 04:36:30;;;;;;;33.33;20.25;;;6.00;89.60;;;;;;5072640;28;20048;-68
2021/01/01 04:38:56;;;;;;;34.28;21.13;;;5.90;89.60;;;;;;5075666;28;20079;-67
2021/01/01 04:41:22;;;;;;;34.78;20.67;;;5.90;89.60;;;;;;5093620;28;20384;-67
2021/01/01 04:43:49;;;;;;;33.67;20.05;;;6.00;89.60;;;;;;5088906;28;20036;-67
2021/01/01 04:46:14;;;;;;;33.75;20.13;;;6.00;89.60;;;;;;5073211;28;20025;-68
2021/01/01 04:48:43;;;;;;;32.53;21.33;;;6.00;89.60;;;;;;5072298;28;20025;-68
2021/01/01 04:51:08;;;;;;;33.58;20.75;;;6.00;89.60;;;;;;5073070;28;20025;-68
2021/01/01 04:53:36;;;;;;;33.42;21.55;;;6.00;89.70;;;;;;5072284;28;20052;-67
2021/01/01 04:56:03;;;;;;;29.92;20.08;;;5.90;89.70;;;;;;5072398;28;20033;-67
2021/01/01 04:58:29;;;;;;;26.60;17.58;;;6.00;89.60;;;;;;5081007;28;20130;-67
2021/01/01 05:00:55;;;;;;;33.60;20.27;;;5.90;89.70;;;;;;5073305;28;20473;-67
2021/01/01 05:03:20;;;;;;;30.15;19.10;;;5.90;89.70;;;;;;5086083;28;20182;-67
2021/01/01 05:05:47;;;;;;;29.88;19.65;;;5.90;89.70;;;;;;5088931;28;20400;-68
2021/01/01 05:08:13;;;;;;;32.08;19.38;;;5.90;89.70;;;;;;5088138;28;20020;-67
2021/01/01 05:10:38;;;;;;;34.25;19.75;;;5.90;89.70;;;;;;5072430;28;20032;-67
2021/01/01 05:13:10;;;;;;;32.05;19.73;;;5.90;89.70;;;;;;5072456;28;20043;-67
2021/01/01 05:15:36;;;;;;;31.27;19.55;;;5.80;89.70;;;;;;5072335;28;20036;-67
2021/01/01 05:18:01;;;;;;;30.73;19.50;;;5.80;89.80;;;;;;5072115;28;20028;-67
2021/01/01 05:20:27;;;;;;;29.77;19.08;;;5.80;89.80;;;;;;5087867;28;20031;-67
2021/01/01 05:22:57;;;;;;;32.70;19.17;;;5.80;89.90;;;;;;5075705;28;20023;-67
2021/01/01 05:25:24;;;;;;;33.33;19.40;;;5.70;89.90;;;;;;5072679;28;20055;-67
2021/01/01 05:27:59;;;;;;;34.95;20.45;;;5.70;90.00;;;;;;5072414;28;20032;-67
2021/01/01 05:30:31;;;;;;;32.00;19.42;;;5.70;90.00;;;;;;5087313;28;20028;-68
2021/01/01 05:32:59;;;;;;;29.60;19.48;;;5.70;90.10;;;;;;5084988;28;20358;-67
2021/01/01 05:35:29;;;;;;;31.77;18.85;;;5.70;90.10;;;;;;5071860;28;20036;-67
2021/01/01 05:37:55;;;;;;;27.90;16.80;;;5.70;90.10;;;;;;5071949;28;20106;-67
2021/01/01 05:40:31;;;;;;;35.10;18.65;;;5.70;90.10;;;;;;5072437;28;20037;-67
2021/01/01 05:43:23;;;;;;;30.85;18.90;;;5.70;90.10;;;;;;5075674;28;20575;-67
2021/01/01 05:45:50;;;;;;;34.40;19.52;;;5.60;90.10;;;;;;5086548;28;20042;-67
2021/01/01 05:48:19;;;;;;;27.02;17.63;;;5.60;90.20;;;;;;5091236;28;20504;-67
2021/01/01 05:50:45;;;;;;;34.05;18.90;;;5.70;90.20;;;;;;5075148;28;20082;-67
2021/01/01 05:53:16;;;;;;;28.65;19.20;;;5.60;90.40;;;;;;5091114;28;20032;-67
2021/01/01 05:55:43;;;;;;;33.08;18.92;;;5.60;90.20;;;;;;5088482;28;20102;-67
2021/01/01 05:58:19;;;;;;;28.80;17.60;;;5.60;90.30;;;;;;5082380;28;20058;-67
2021/01/01 06:00:45;;;;;;;31.05;18.75;;;5.60;90.30;;;;;;5071487;28;20028;-67
2021/01/01 06:03:19;;;;;;;29.45;18.92;;;5.60;90.30;;;;;;5071624;28;20094;-67
2021/01/01 06:05:50;;;;;;;31.10;18.08;;;5.50;90.40;;;;;;5071757;28;20115;-67
2021/01/01 06:08:18;;;;;;;33.78;20.42;;;5.50;90.40;;;;;;5074636;28;20119;-69
2021/01/01 06:10:49;;;;;;;30.17;17.92;;;5.50;90.40;;;;;;5071631;28;20387;-69
2021/01/01 06:13:19;;;;;;;30.92;19.70;;;5.50;90.40;;;;;;5081101;28;20036;-69
2021/01/01 06:15:54;;;;;;;31.42;19.30;;;5.50;90.50;;;;;;5071462;28;20413;-68
2021/01/01 06:18:28;;;;;;;29.30;19.10;;;5.60;90.50;;;;;;5078850;28;20480;-68
2021/01/01 06:21:00;;;;;;;30.65;18.50;;;5.50;90.50;;;;;;5072008;28;20032;-68
2021/01/01 06:23:36;;;;;;;31.17;19.23;;;5.60;90.60;;;;;;5082168;28;20044;-68
2021/01/01 06:26:10;;;;;;;33.55;18.92;;;5.60;90.70;;;;;;5091380;28;20085;-67
2021/01/01 06:28:37;;;;;;;35.50;19.20;;;5.60;90.70;;;;;;5088738;28;20064;-68
2021/01/01 06:31:05;;;;;;;30.92;18.85;;;5.60;91.00;;;;;;5070980;28;20037;-68
2021/01/01 06:33:32;;;;;;;33.30;18.98;;;5.50;90.90;;;;;;5086833;28;20032;-69
2021/01/01 06:35:58;;;;;;;31.98;18.50;;;5.50;91.00;;;;;;5071833;28;20087;-67
2021/01/01 06:38:40;;;;;;;33.15;20.23;;;5.50;91.00;;;;;;5081694;28;20064;-67
2021/01/01 06:41:14;;;;;;;35.42;20.83;;;5.50;91.10;;;;;;5071139;28;20082;-67
2021/01/01 06:43:55;;;;;;;31.83;19.20;;;5.50;91.20;;;;;;5071431;28;20115;-67
2021/01/01 06:46:46;;;;;;;31.15;18.45;;;5.50;91.20;;;;;;5072805;28;20024;-67
2021/01/01 06:49:30;;;;;;;33.60;20.42;;;5.50;91.40;;;;;;5080532;28;20037;-70
2021/01/01 06:52:13;;;;;;;31.95;19.83;;;5.50;91.40;;;;;;5080512;28;20071;-68
2021/01/01 06:54:57;;;;;;;30.77;20.85;;;5.40;91.50;;;;;;5076716;28;20048;-69
2021/01/01 06:57:24;;;;;;;31.67;20.83;;;5.40;91.50;;;;;;5078189;28;20032;-69
2021/01/01 06:59:51;;;;;;;32.97;20.35;;;5.40;91.60;;;;;;5071224;28;20111;-69
2021/01/01 07:02:20;;;;;;;40.83;21.00;;;5.40;91.70;;;;;;5079393;28;20485;-70
2021/01/01 07:04:47;;;;;;;28.80;18.95;;;5.40;91.80;;;;;;5079044;28;20036;-71
2021/01/01 07:07:38;;;;;;;31.73;20.27;;;5.40;91.90;;;;;;5089040;28;20028;-68
2021/01/01 07:10:05;;;;;;;31.67;20.42;;;5.40;92.00;;;;;;5083655;28;20111;-72
2021/01/01 07:12:31;;;;;;;33.75;20.42;;;5.30;92.00;;;;;;5085796;28;20039;-71
2021/01/01 07:14:56;;;;;;;31.70;19.85;;;5.30;92.10;;;;;;5076229;28;20024;-71
2021/01/01 07:17:22;;;;;;;32.35;19.75;;;5.30;92.40;;;;;;5069595;28;20033;-71
2021/01/01 07:19:48;;;;;;;32.92;20.08;;;5.40;92.20;;;;;;5082454;28;20020;-71
2021/01/01 07:22:14;;;;;;;34.08;19.92;;;5.30;92.20;;;;;;5093565;28;20026;-71
2021/01/01 07:24:39;;;;;;;29.98;19.95;;;5.30;92.30;;;;;;5084161;28;20029;-71
2021/01/01 07:27:06;;;;;;;30.02;19.15;;;5.40;92.30;;;;;;5074344;28;20353;-71
2021/01/01 07:29:31;;;;;;;32.92;20.15;;;5.40;92.40;;;;;;5074017;28;20028;-71
2021/01/01 07:31:58;;;;;;;31.00;20.00;;;5.40;92.40;;;;;;5074034;28;20020;-71
2021/01/01 07:34:24;;;;;;;29.75;18.40;;;5.30;92.40;;;;;;5081015;28;20078;-70
2021/01/01 07:36:51;;;;;;;32.05;20.70;;;5.40;92.50;;;;;;5094986;28;20049;-72
2021/01/01 07:39:17;;;;;;;36.08;21.13;;;5.30;92.50;;;;;;5084952;28;20032;-70
2021/01/01 07:41:42;;;;;;;32.65;20.05;;;5.40;92.60;;;;;;5087169;28;20078;-71
2021/01/01 07:44:08;;;;;;;33.35;20.67;;;5.40;92.60;;;;;;5074179;28;20029;-70
2021/01/01 07:46:34;;;;;;;33.42;20.75;;;5.40;92.60;;;;;;5074306;28;20368;-71
2021/01/01 07:48:59;;;;;;;34.47;20.42;;;5.40;92.70;;;;;;5086649;28;20496;-72
2021/01/01 07:51:25;;;;;;;34.95;19.45;;;5.40;92.70;;;;;;5089828;28;20028;-70
2021/01/01 07:53:57;;;;;;;34.53;21.83;;;5.30;92.70;;;;;;5090104;28;20112;-68
2021/01/01 07:56:23;;;;;;;32.10;20.30;;;5.30;92.80;;;;;;5087278;28;20055;-71
2021/01/01 07:58:48;;;;;;;32.72;20.15;;;5.30;92.80;;;;;;5081738;28;20070;-70
2021/01/01 08:01:16;;;;;;;34.03;20.65;;;5.40;92.90;;;;;;5090128;28;20411;-69
2021/01/01 08:03:41;;;;;;;31.55;20.00;;;5.40;92.90;;;;;;5085373;28;20032;-69
2021/01/01 08:06:08;;;;;;;33.70;19.85;;;5.40;93.00;;;;;;5073821;28;20033;-70
2021/01/01 08:08:34;;;;;;;34.75;20.00;;;5.40;93.00;;;;;;5072812;28;20089;-69
2021/01/01 08:11:00;;;;;;;31.50;19.95;;;5.40;93.00;;;;;;5073022;28;20029;-69
2021/01/01 08:13:28;;;;;;;31.88;20.30;;;5.50;93.10;;;;;;5087308;28;20040;-69
2021/01/01 08:16:09;;;;;;;35.38;20.55;;;5.50;93.10;;;;;;5091660;28;20031;-70
2021/01/01 08:18:34;;;;;;;33.95;20.70;;;5.50;93.10;;;;;;5092352;28;20036;-69
2021/01/01 08:21:02;;;;;;;33.13;21.02;;;5.50;93.10;;;;;;5073425;28;20421;-69
2021/01/01 08:23:54;;;;;;;36.28;21.63;;;5.50;93.10;;;;;;5080530;28;20043;-70
2021/01/01 08:26:20;;;;;;;34.67;20.17;;;5.50;93.20;;;;;;5083995;28;20024;-69
2021/01/01 08:28:48;;;;;;;31.38;20.17;;;5.40;93.10;;;;;;5073665;28;20073;-69
2021/01/01 08:31:18;;;;;;;32.70;20.23;;;5.50;93.20;;;;;;5078693;28;20183;-69
2021/01/01 08:33:44;;;;;;;30.75;20.08;;;5.50;93.30;;;;;;5073298;28;20025;-69
2021/01/01 08:36:11;;;;;;;33.25;20.75;;;5.50;93.30;;;;;;5082662;28;20024;-69
2021/01/01 08:38:47;;;;;;;31.05;19.35;;;5.50;93.40;;;;;;5087612;28;20156;-69
2021/01/01 08:41:17;;;;;;;32.40;19.10;;;5.60;93.40;;;;;;5077948;28;20111;-69
2021/01/01 08:43:43;;;;;;;30.48;20.27;;;5.70;93.40;;;;;;5078731;28;20059;-69
2021/01/01 08:46:20;;;;;;;30.00;19.52;;;5.70;93.40;;;;;;5072805;28;20113;-69
2021/01/01 08:48:46;;;;;;;32.53;19.80;;;5.80;93.40;;;;;;5077983;28;20115;-69
2021/01/01 08:51:11;;;;;;;34.55;20.35;;;5.80;93.40;;;;;;5087555;28;20115;-69
2021/01/01 08:53:38;;;;;;;34.83;21.20;;;5.80;93.40;;;;;;5078468;28;20051;-69
2021/01/01 08:56:04;;;;;;;32.42;19.48;;;5.80;93.40;;;;;;5071457;28;20067;-69
2021/01/01 08:58:30;;;;;;;34.42;19.65;;;5.80;93.40;;;;;;5084322;28;20124;-70
2021/01/01 09:00:56;;;;;;;30.50;19.08;;;5.90;93.40;;;;;;5079547;28;20039;-68
2021/01/01 09:03:22;;;;;;;29.83;19.65;;;5.90;93.40;;;;;;5082067;28;20016;-72
2021/01/01 09:05:54;;;;;;;29.55;18.90;;;6.00;93.40;;;;;;5073554;28;20054;-71
2021/01/01 09:08:24;;;;;;;33.10;19.15;;;6.00;93.30;;;;;;5071243;28;20051;-71
2021/01/01 09:10:53;;;;;;;32.38;18.83;;;6.10;93.30;;;;;;5073020;28;20033;-70
2021/01/01 09:13:26;;;;;;;31.55;19.05;;;6.20;93.30;;;;;;5072635;28;20024;-70
2021/01/01 09:16:11;;;;;;;30.63;19.10;;;6.20;93.30;;;;;;5087624;28;20026;-70
2021/01/01 09:18:37;;;;;;;29.87;19.27;;;6.20;93.30;;;;;;5110772;28;20040;-70
2021/01/01 09:21:09;;;;;;;29.73;19.15;;;6.20;93.20;;;;;;5079420;28;20043;-70
2021/01/01 09:23:35;;;;;;;31.38;18.85;;;6.30;93.30;;;;;;5091470;28;20028;-70
2021/01/01 09:26:01;;;;;;;33.08;18.85;;;6.30;93.40;;;;;;5107717;28;20031;-70
2021/01/01 09:28:27;;;;;;;32.25;18.83;;;6.30;93.20;;;;;;5113464;28;20030;-70
2021/01/01 09:30:52;;;;;;;30.45;19.17;;;6.30;93.20;;;;;;5085646;28;20024;-71
2021/01/01 09:33:20;;;;;;;32.95;19.92;;;6.40;93.20;;;;;;5075060;28;20460;-71
2021/01/01 09:35:45;;;;;;;28.60;19.13;;;6.40;93.20;;;;;;5073634;28;20032;-70
2021/01/01 09:38:11;;;;;;;29.27;17.88;;;6.40;93.20;;;;;;5076244;28;20044;-71
2021/01/01 09:40:36;;;;;;;27.35;18.92;;;6.40;93.30;;;;;;5073393;28;20024;-71
2021/01/01 09:43:03;;;;;;;28.75;17.85;;;6.40;93.20;;;;;;5071606;28;20108;-71
2021/01/01 09:45:29;;;;;;;30.42;18.15;;;6.50;93.30;;;;;;5081492;28;20028;-71
2021/01/01 09:47:54;;;;;;;27.45;16.95;;;6.50;93.20;;;;;;5093975;28;20474;-73
2021/01/01 09:50:20;;;;;;;29.00;18.00;;;6.60;93.20;;;;;;5090587;28;20462;-71
2021/01/01 09:52:45;;;;;;;30.05;18.38;;;6.60;93.20;;;;;;5103711;28;20475;-71
2021/01/01 09:55:11;;;;;;;30.38;18.05;;;6.60;93.20;;;;;;5089682;28;20044;-71
2021/01/01 09:57:40;;;;;;;30.33;18.95;;;6.60;93.30;;;;;;5091331;28;20048;-71
2021/01/01 10:00:08;;;;;;;29.70;18.80;;;6.60;93.30;;;;;;5079276;28;20107;-71
2021/01/01 10:02:33;;;;;;;29.95;18.05;;;6.60;93.20;;;;;;5080179;28;20058;-71
2021/01/01 10:04:59;;;;;;;31.27;18.45;;;6.60;93.30;;;;;;5074445;28;20547;-72
2021/01/01 10:07:26;;;;;;;29.90;18.85;;;6.60;93.30;;;;;;5072952;28;20032;-72
2021/01/01 10:09:52;;;;;;;30.45;18.15;;;6.60;93.20;;;;;;5082094;28;20480;-72
2021/01/01 10:12:18;;;;;;;30.73;19.15;;;6.60;93.20;;;;;;5073781;28;20141;-71
2021/01/01 10:14:44;;;;;;;26.10;18.05;;;6.70;93.30;;;;;;5082639;28;20111;-73
2021/01/01 10:17:09;;;;;;;30.63;18.13;;;6.60;93.30;;;;;;5084767;28;20103;-72
2021/01/01 10:19:39;;;;;;;30.02;17.63;;;6.70;93.30;;;;;;5078443;28;20380;-72
2021/01/01 10:22:04;;;;;;;30.65;17.35;;;6.70;93.30;;;;;;5078832;28;20054;-72
2021/01/01 10:24:30;;;;;;;27.77;17.20;;;6.70;93.30;;;;;;5077447;28;20329;-72
2021/01/01 10:26:55;;;;;;;30.17;18.55;;;6.70;93.30;;;;;;5071651;28;20024;-70
2021/01/01 10:29:22;;;;;;;30.70;18.95;;;6.70;93.30;;;;;;5071765;28;20556;-71
2021/01/01 10:31:48;;;;;;;29.50;18.02;;;6.70;93.30;;;;;;5082311;28;20032;-70
2021/01/01 10:34:13;;;;;;;29.33;18.25;;;6.70;93.30;;;;;;5078970;28;20020;-71
2021/01/01 10:36:39;;;;;;;28.58;17.35;;;6.70;93.30;;;;;;5083343;28;20027;-71
2021/01/01 10:39:06;;;;;;;28.67;18.00;;;6.80;93.30;;;;;;5077675;28;20530;-71
2021/01/01 10:41:31;;;;;;;28.40;17.63;;;6.80;93.30;;;;;;5094111;28;20054;-72
2021/01/01 10:43:57;;;;;;;27.48;17.73;;;6.90;93.30;;;;;;5089071;28;20484;-72
2021/01/01 10:46:23;;;;;;;28.85;18.45;;;6.90;93.30;;;;;;5071544;28;20029;-72
2021/01/01 10:48:48;;;;;;;29.77;17.92;;;6.90;93.30;;;;;;5072311;28;20025;-72
2021/01/01 10:51:24;;;;;;;31.08;18.02;;;6.90;93.30;;;;;;5070495;28;20104;-71
2021/01/01 10:53:50;;;;;;;32.03;18.63;;;6.90;93.30;;;;;;5082966;28;20527;-71
2021/01/01 10:56:20;;;;;;;28.83;18.60;;;6.90;93.30;;;;;;5075561;28;20487;-72
2021/01/01 10:58:45;;;;;;;30.20;18.17;;;7.00;93.30;;;;;;5076037;28;20040;-72
2021/01/01 11:01:11;;;;;;;31.88;18.88;;;7.00;93.30;;;;;;5075649;28;20115;-72
2021/01/01 11:03:36;;;;;;;27.40;17.58;;;7.00;93.30;;;;;;5075802;28;20024;-72
2021/01/01 11:06:02;;;;;;;28.55;17.73;;;7.10;93.30;;;;;;5079257;28;20058;-72
2021/01/01 11:08:27;;;;;;;32.78;18.30;;;7.10;93.50;;;;;;5095028;28;20020;-72
2021/01/01 11:10:53;;;;;;;30.80;19.10;;;7.10;93.30;;;;;;5085474;28;20466;-72
2021/01/01 11:13:18;;;;;;;28.25;17.95;;;7.10;93.40;;;;;;5075453;28;20021;-71
2021/01/01 12:22:18;;;;;;;29.33;17.05;;;7.50;92.80;;;;;;5061007;28;20024;-69
2021/01/01 12:24:47;;;;;;;26.08;16.02;;;7.50;92.90;;;;;;5072963;28;20093;-68
2021/01/01 12:27:16;;;;;;;25.60;15.93;;;7.50;93.00;;;;;;5083768;28;20585;-68
2021/01/01 12:29:42;;;;;;;28.00;16.55;;;7.40;93.10;;;;;;5082299;28;20044;-69
2021/01/01 12:32:08;;;;;;;27.20;15.85;;;7.50;93.10;;;;;;5075237;28;20077;-68
2021/01/01 12:34:33;;;;;;;27.70;15.80;;;7.50;93.10;;;;;;5078554;28;20024;-68
2021/01/01 12:36:59;;;;;;;23.33;14.90;;;7.50;93.00;;;;;;5073334;28;20032;-69
2021/01/01 12:39:24;;;;;;;22.88;14.80;;;7.50;93.00;;;;;;5076538;28;20520;-68
2021/01/01 12:41:50;;;;;;;25.38;15.55;;;7.50;93.00;;;;;;5092941;28;20055;-68
2021/01/01 12:44:15;;;;;;;23.70;14.75;;;7.50;93.00;;;;;;5072783;28;20036;-69
2021/01/01 12:46:41;;;;;;;23.58;15.02;;;7.50;93.00;;;;;;5087893;28;20074;-68
2021/01/01 12:49:07;;;;;;;23.08;14.45;;;7.50;93.00;;;;;;5084387;28;20024;-68
2021/01/01 12:51:32;;;;;;;23.33;14.35;;;7.40;93.00;;;;;;5073275;28;20388;-68
2021/01/01 12:53:58;;;;;;;22.98;13.90;;;7.50;93.00;;;;;;5071826;28;20044;-69
2021/01/01 12:56:23;;;;;;;22.25;13.82;;;7.50;93.00;;;;;;5083068;28;20048;-69
2021/01/01 12:58:49;;;;;;;21.85;13.88;;;7.50;93.00;;;;;;5079179;28;20488;-69
2021/01/01 13:01:15;;;;;;;27.15;15.50;;;7.50;93.00;;;;;;5085347;28;20029;-69
2021/01/01 13:03:40;;;;;;;25.27;13.85;;;7.50;93.00;;;;;;5076632;28;20021;-68
2021/01/01 13:06:06;;;;;;;21.27;13.85;;;7.50;93.00;;;;;;5077028;28;20075;-68
2021/01/01 13:08:31;;;;;;;23.80;13.50;;;7.50;93.00;;;;;;5081674;28;20536;-68
2021/01/01 13:10:56;;;;;;;22.25;12.45;;;7.50;93.00;;;;;;5079775;28;20021;-68
2021/01/01 13:13:22;;;;;;;20.70;13.02;;;7.50;92.90;;;;;;5077963;28;20607;-67
2021/01/01 13:15:48;;;;;;;19.67;12.70;;;7.50;92.80;;;;;;5071116;28;20028;-68
2021/01/01 13:18:13;;;;;;;24.75;13.25;;;7.50;92.70;;;;;;5072372;28;20043;-67
2021/01/01 13:20:41;;;;;;;24.63;13.20;;;7.50;92.70;;;;;;5073010;28;20016;-70
2021/01/01 13:23:07;;;;;;;19.38;11.60;;;7.50;92.80;;;;;;5072438;28;20028;-68
2021/01/01 13:25:32;;;;;;;19.92;12.07;;;7.50;92.80;;;;;;5073144;28;20039;-69
2021/01/01 13:27:58;;;;;;;18.85;11.68;;;7.50;92.80;;;;;;5071714;28;20119;-68
2021/01/01 13:30:24;;;;;;;19.10;12.10;;;7.50;92.90;;;;;;5077169;28;20027;-68
2021/01/01 13:32:49;;;;;;;20.42;12.32;;;7.50;92.90;;;;;;5072393;28;20503;-69
2021/01/01 13:35:15;;;;;;;19.33;11.57;;;7.50;92.80;;;;;;5081073;28;20166;-68
2021/01/01 13:37:40;;;;;;;18.77;12.48;;;7.50;92.80;;;;;;5073091;28;20040;-68
2021/01/01 13:40:06;;;;;;;20.13;12.85;;;7.50;92.90;;;;;;5082451;28;20032;-69
2021/01/01 13:42:32;;;;;;;22.60;12.18;;;7.50;92.80;;;;;;5091449;28;20020;-69